Honeoye Falls, New York
Current Conditions -  °F | °C
As of 6:54 AM on Friday 19 Dec 2014 (Local Time) from KROC Reporting Station
Light Snow Light Snow  
Wind Chill: -10°   Ceiling: 1300
Heat Index: -4°   Visibility: 9mi
Dew Point: -6°   Wind: 12mph
Humidity: 85%   Direction: 300°WNW
Pressure: 30.12"   Gusts: NA
Location:  42.95°N, 77.59°W
Report Text: KROC 191154Z 30010KT 9SM -SN OVC013 M04/M06 A3012 RMK AO2 SLP212 PCPN VRY LGT P0000 60000 70002 I6000 T10391061 11022 21039 53011
Loading
Personal Weather Stations






























Interactive Weather Map New forecast layout! Learn more

10-Day Weather Forecast

Advertisements
Track Severe Weather on mobile